createdAt,value
2019-05-17T00:00:41.881Z,58.17
2019-05-17T00:03:17.023Z,60.39
2019-05-17T00:05:50.136Z,62.07
2019-05-17T00:08:31.960Z,63.38
2019-05-17T00:10:57.526Z,63.11
2019-05-17T00:13:30.345Z,53.77
2019-05-17T00:16:03.477Z,52.81
2019-05-17T00:18:37.053Z,55.37
2019-05-17T00:21:10.056Z,57.82
2019-05-17T00:23:42.935Z,60.03
2019-05-17T00:26:16.442Z,61.48
2019-05-17T00:28:49.486Z,62.73
2019-05-17T00:31:22.401Z,63.26
2019-05-17T00:33:56.582Z,53.88
2019-05-17T00:36:29.877Z,52.25
2019-05-17T00:39:02.892Z,54.83
2019-05-17T00:41:37.471Z,57.42
2019-05-17T00:44:10.274Z,59.44
2019-05-17T00:46:43.091Z,61.10
2019-05-17T00:49:17.121Z,62.56
2019-05-17T00:51:50.230Z,62.75
2019-05-17T00:54:23.085Z,53.58
2019-05-17T00:56:56.699Z,51.97
2019-05-17T00:59:29.670Z,54.59
2019-05-17T01:02:02.554Z,57.13
2019-05-17T01:04:36.824Z,59.28
2019-05-17T01:07:09.943Z,60.88
2019-05-17T01:09:42.879Z,61.69
2019-05-17T01:12:16.425Z,62.72
2019-05-17T01:14:49.450Z,62.74
2019-05-17T01:17:22.305Z,52.85
2019-05-17T01:19:57.216Z,51.51
2019-05-17T01:22:29.747Z,54.26
2019-05-17T01:25:02.543Z,56.58
2019-05-17T01:27:37.994Z,58.85
2019-05-17T01:30:11.778Z,60.22
2019-05-17T01:32:46.456Z,61.71
2019-05-17T01:35:19.250Z,62.94
2019-05-17T01:37:52.092Z,63.44
2019-05-17T01:40:26.474Z,53.61
2019-05-17T01:42:59.445Z,51.47
2019-05-17T01:45:32.558Z,54.20
2019-05-17T01:48:07.436Z,56.62
2019-05-17T01:50:40.007Z,58.56
2019-05-17T01:53:12.931Z,60.07
2019-05-17T01:55:46.603Z,61.56
2019-05-17T01:58:19.690Z,63.03
2019-05-17T02:00:52.510Z,63.58
2019-05-17T02:03:26.779Z,53.88
2019-05-17T02:05:59.734Z,51.46
2019-05-17T02:08:32.570Z,54.00
2019-05-17T02:11:06.948Z,56.57
2019-05-17T02:13:39.902Z,58.62
2019-05-17T02:16:12.907Z,60.29
2019-05-17T02:18:46.622Z,61.63
2019-05-17T02:21:19.501Z,62.89
2019-05-17T02:23:52.364Z,63.47
2019-05-17T02:26:26.671Z,53.87
2019-05-17T02:29:01.427Z,51.96
2019-05-17T02:31:34.980Z,54.48
2019-05-17T02:34:08.027Z,56.95
2019-05-17T02:36:43.079Z,59.04
2019-05-17T02:39:15.382Z,60.46
2019-05-17T02:41:48.290Z,62.29
2019-05-17T02:44:23.584Z,63.38
2019-05-17T02:46:55.736Z,53.75
2019-05-17T02:49:28.570Z,52.30
2019-05-17T02:52:03.162Z,54.81
2019-05-17T02:54:35.890Z,57.31
2019-05-17T02:57:08.890Z,59.55
2019-05-17T02:59:43.303Z,61.05
2019-05-17T03:02:16.383Z,62.96
2019-05-17T03:04:52.402Z,63.20
2019-05-17T03:07:23.810Z,53.24
2019-05-17T03:10:12.436Z,52.82
2019-05-17T03:12:32.852Z,55.61
2019-05-17T03:15:07.359Z,58.18
2019-05-17T03:17:43.423Z,60.15
2019-05-17T03:20:16.549Z,61.64
2019-05-17T03:22:52.330Z,63.20
2019-05-17T03:25:24.126Z,63.35
2019-05-17T03:27:57.041Z,53.64
2019-05-17T03:30:35.563Z,52.10
2019-05-17T03:33:07.920Z,54.82
2019-05-17T03:35:45.158Z,57.41
2019-05-17T03:38:14.477Z,59.57
2019-05-17T03:41:07.352Z,61.14
2019-05-17T03:43:22.622Z,62.69
2019-05-17T03:45:56.763Z,62.95
2019-05-17T03:48:32.994Z,53.37
2019-05-17T03:51:04.106Z,52.35
2019-05-17T03:53:36.989Z,55.07
2019-05-17T03:56:13.161Z,57.58
2019-05-17T03:58:44.330Z,59.89
2019-05-17T04:01:17.217Z,61.17
2019-05-17T04:03:52.709Z,62.69
2019-05-17T04:06:24.750Z,63.21
2019-05-17T04:08:57.565Z,54.40
2019-05-17T04:11:35.538Z,51.89
2019-05-17T04:14:05.236Z,54.58
2019-05-17T04:16:38.193Z,57.31
2019-05-17T04:19:14.029Z,59.48
2019-05-17T04:21:46.785Z,61.21
2019-05-17T04:24:22.897Z,62.63
2019-05-17T04:26:54.266Z,63.21
2019-05-17T04:29:27.132Z,54.36
2019-05-17T04:32:03.532Z,51.89
2019-05-17T04:34:34.702Z,54.59
2019-05-17T04:37:08.625Z,57.38
2019-05-17T04:39:43.208Z,59.61
2019-05-17T04:42:16.171Z,61.44
2019-05-17T04:44:52.423Z,63.29
2019-05-17T04:47:23.938Z,62.26
2019-05-17T04:49:56.783Z,53.35
2019-05-17T04:52:33.327Z,53.18
2019-05-17T04:55:05.521Z,56.14
2019-05-17T04:57:38.321Z,58.87
2019-05-17T05:00:12.996Z,60.82
2019-05-17T05:02:46.294Z,62.54
2019-05-17T05:05:22.473Z,62.22
2019-05-17T05:07:54.031Z,53.12
2019-05-17T05:10:27.148Z,52.94
2019-05-17T05:13:02.793Z,55.90
2019-05-17T05:15:43.915Z,57.86
2019-05-17T05:18:17.906Z,59.82
2019-05-17T05:20:52.670Z,61.69
2019-05-17T05:23:25.253Z,64.40
2019-05-17T05:25:58.057Z,60.54
2019-05-17T05:28:31.718Z,52.67
2019-05-17T05:31:04.824Z,53.54
2019-05-17T05:33:37.653Z,55.21
2019-05-17T05:36:11.424Z,57.44
2019-05-17T05:38:44.311Z,58.66
2019-05-17T05:41:17.281Z,59.72
2019-05-17T05:43:52.458Z,60.48
2019-05-17T05:46:24.635Z,61.82
2019-05-17T05:48:57.465Z,62.73
2019-05-17T05:51:32.010Z,61.14
2019-05-17T05:54:05.934Z,52.17
2019-05-17T05:56:38.763Z,51.35
2019-05-17T05:59:12.254Z,53.95
2019-05-17T06:01:46.520Z,55.50
2019-05-17T06:04:19.342Z,56.08
2019-05-17T06:06:52.312Z,55.68
2019-05-17T06:09:25.159Z,55.46
2019-05-17T06:11:57.949Z,55.89
2019-05-17T06:14:32.338Z,57.00
2019-05-17T06:17:05.431Z,56.89
2019-05-17T06:19:38.258Z,57.00
2019-05-17T06:22:12.025Z,58.23
2019-05-17T06:24:45.445Z,58.80
2019-05-17T06:27:18.238Z,60.03
2019-05-17T06:29:51.619Z,61.84
2019-05-17T06:32:24.435Z,62.81
2019-05-17T06:34:57.229Z,60.52
2019-05-17T06:37:31.782Z,52.13
2019-05-17T06:40:05.050Z,52.31
2019-05-17T06:42:41.342Z,54.40
2019-05-17T06:45:13.929Z,55.63
2019-05-17T06:47:46.741Z,57.29
2019-05-17T06:50:19.855Z,59.14
2019-05-17T06:52:53.302Z,60.42
2019-05-17T06:55:27.255Z,60.58
2019-05-17T06:58:01.679Z,61.25
2019-05-17T07:00:34.822Z,61.87
2019-05-17T07:03:09.531Z,61.77
2019-05-17T07:05:44.256Z,62.33
2019-05-17T07:08:17.170Z,61.79
2019-05-17T07:10:50.305Z,52.48
2019-05-17T07:13:24.318Z,51.12
2019-05-17T07:15:59.527Z,52.57
2019-05-17T07:18:31.627Z,54.40
2019-05-17T07:21:04.423Z,56.31
2019-05-17T07:23:39.521Z,56.92
2019-05-17T07:26:12.134Z,57.34
2019-05-17T07:28:45.031Z,58.73
2019-05-17T07:31:21.232Z,59.45
2019-05-17T07:33:52.343Z,60.03
2019-05-17T07:36:25.211Z,60.46
2019-05-17T07:38:58.111Z,60.88
2019-05-17T07:41:32.915Z,61.55
2019-05-17T07:44:05.834Z,62.26
2019-05-17T07:46:40.225Z,62.16
2019-05-17T07:49:13.256Z,62.60
2019-05-17T07:51:46.048Z,62.63
2019-05-17T07:54:19.752Z,52.57
2019-05-17T07:56:53.957Z,50.55
2019-05-17T07:59:26.747Z,53.13
2019-05-17T08:01:59.784Z,55.14
2019-05-17T08:04:32.650Z,56.11
2019-05-17T08:07:05.858Z,57.30
2019-05-17T08:09:40.420Z,58.16
2019-05-17T08:12:13.378Z,59.42
2019-05-17T08:14:46.337Z,59.86
2019-05-17T08:17:19.822Z,60.78
2019-05-17T08:19:52.920Z,61.21
2019-05-17T08:22:25.713Z,61.89
2019-05-17T08:25:00.038Z,63.03
2019-05-17T08:27:33.439Z,61.47
2019-05-17T08:30:06.459Z,50.48
2019-05-17T08:32:40.136Z,50.34
2019-05-17T08:35:13.297Z,52.42
2019-05-17T08:37:46.127Z,54.17
2019-05-17T08:40:20.045Z,55.47
2019-05-17T08:42:53.138Z,55.96
2019-05-17T08:45:26.000Z,57.00
2019-05-17T08:48:00.339Z,57.60
2019-05-17T08:50:33.503Z,59.15
2019-05-17T08:53:06.464Z,60.03
2019-05-17T08:55:40.849Z,60.26
2019-05-17T08:58:13.826Z,60.64
2019-05-17T09:00:46.705Z,61.20
2019-05-17T09:03:19.757Z,62.27
2019-05-17T09:05:53.106Z,62.45
2019-05-17T09:08:26.080Z,62.30
2019-05-17T09:11:00.339Z,52.15
2019-05-17T09:13:33.577Z,50.49
2019-05-17T09:16:06.549Z,52.56
2019-05-17T09:18:39.597Z,54.51
2019-05-17T09:21:13.021Z,55.75
2019-05-17T09:23:45.916Z,56.38
2019-05-17T09:26:20.028Z,58.09
2019-05-17T09:28:53.076Z,58.34
2019-05-17T09:31:25.886Z,58.80
2019-05-17T09:34:00.269Z,59.21
2019-05-17T09:36:33.478Z,59.51
2019-05-17T09:39:09.463Z,60.11
2019-05-17T09:41:42.671Z,60.25
2019-05-17T09:44:16.525Z,59.64
2019-05-17T09:46:50.399Z,60.29
2019-05-17T09:49:23.378Z,60.13
2019-05-17T09:51:56.285Z,60.24
2019-05-17T09:54:41.466Z,60.23
2019-05-17T09:57:03.691Z,61.03
2019-05-17T09:59:36.625Z,61.50
2019-05-17T10:02:10.489Z,61.93
2019-05-17T10:04:43.455Z,61.98
2019-05-17T10:07:17.883Z,62.14
2019-05-17T10:09:51.856Z,61.87
2019-05-17T10:12:24.652Z,62.20
2019-05-17T10:14:57.479Z,62.78
2019-05-17T10:17:30.331Z,61.55
2019-05-17T10:20:03.192Z,52.94
2019-05-17T10:22:36.215Z,49.63
2019-05-17T10:25:10.039Z,51.49
2019-05-17T10:27:42.965Z,53.46
2019-05-17T10:30:17.288Z,54.20
2019-05-17T10:32:51.687Z,54.86
2019-05-17T10:35:24.592Z,55.47
2019-05-17T10:37:59.594Z,56.12
2019-05-17T10:40:32.791Z,56.77
2019-05-17T10:43:05.692Z,57.12
2019-05-17T10:45:40.084Z,57.25
2019-05-17T10:48:13.180Z,58.10
2019-05-17T10:50:46.307Z,58.59
2019-05-17T10:53:20.372Z,59.40
2019-05-17T10:55:54.812Z,59.76
2019-05-17T10:58:29.634Z,59.82
2019-05-17T11:01:02.390Z,59.31
2019-05-17T11:03:35.233Z,58.47
2019-05-17T11:06:10.714Z,57.60
2019-05-17T11:08:42.745Z,59.16
2019-05-17T11:11:15.884Z,58.45
2019-05-17T11:13:48.875Z,58.89
2019-05-17T11:16:21.764Z,58.91
2019-05-17T11:18:54.630Z,59.48
2019-05-17T11:21:27.432Z,59.55
2019-05-17T11:24:00.497Z,59.85
2019-05-17T11:26:34.410Z,58.90
2019-05-17T11:29:07.406Z,58.78
2019-05-17T11:31:40.345Z,59.19
2019-05-17T11:34:13.185Z,59.52
2019-05-17T11:36:46.045Z,60.25
2019-05-17T11:39:20.447Z,60.47
2019-05-17T11:41:53.447Z,59.87
2019-05-17T11:44:26.432Z,60.08
2019-05-17T11:46:59.350Z,59.96
2019-05-17T11:49:33.209Z,60.33
2019-05-17T11:52:06.206Z,60.22
2019-05-17T11:54:39.503Z,60.01
2019-05-17T11:57:12.555Z,60.23
2019-05-17T11:59:45.648Z,57.90
2019-05-17T12:02:21.388Z,58.23
2019-05-17T12:04:52.981Z,59.06
2019-05-17T12:07:25.947Z,59.86
2019-05-17T12:09:58.768Z,59.75
2019-05-17T12:12:31.590Z,60.38
2019-05-17T12:15:05.996Z,60.66
2019-05-17T12:17:38.938Z,61.13
2019-05-17T12:20:13.196Z,61.63
2019-05-17T12:22:46.030Z,61.92
2019-05-17T12:25:18.909Z,62.85
2019-05-17T12:27:51.863Z,58.90
2019-05-17T12:30:25.144Z,53.74
2019-05-17T12:32:58.037Z,54.81
2019-05-17T12:35:30.872Z,56.92
2019-05-17T12:38:03.767Z,58.79
2019-05-17T12:40:36.608Z,60.05
2019-05-17T12:43:09.498Z,60.69
2019-05-17T12:45:42.458Z,61.27
2019-05-17T12:48:16.321Z,61.28
2019-05-17T12:50:49.284Z,61.49
2019-05-17T12:53:22.134Z,62.00
2019-05-17T12:55:54.961Z,61.92
2019-05-17T12:58:27.800Z,61.71
2019-05-17T13:01:00.644Z,61.97
2019-05-17T13:03:33.422Z,62.14
2019-05-17T13:06:06.400Z,62.84
2019-05-17T13:08:39.549Z,62.86
2019-05-17T13:11:12.440Z,55.15
2019-05-17T13:13:45.312Z,49.94
2019-05-17T13:16:19.377Z,50.31
2019-05-17T13:18:52.333Z,51.55
2019-05-17T13:21:25.297Z,52.29
2019-05-17T13:23:58.311Z,53.91
2019-05-17T13:26:31.149Z,54.33
2019-05-17T13:29:04.056Z,54.76
2019-05-17T13:31:36.891Z,55.09
2019-05-17T13:34:09.724Z,54.90
2019-05-17T13:36:42.645Z,55.78
2019-05-17T13:39:15.667Z,55.92
2019-05-17T13:41:48.579Z,56.14
2019-05-17T13:44:21.497Z,56.30
2019-05-17T13:46:54.348Z,56.69
2019-05-17T13:49:27.462Z,58.06
2019-05-17T13:52:00.302Z,58.39
2019-05-17T13:54:33.318Z,58.72
2019-05-17T13:57:06.161Z,58.68
2019-05-17T13:59:39.044Z,58.68
2019-05-17T14:02:11.850Z,58.09
2019-05-17T14:04:44.738Z,58.18
2019-05-17T14:07:17.514Z,58.95
2019-05-17T14:09:50.427Z,59.20
2019-05-17T14:12:25.802Z,60.25
2019-05-17T14:15:00.149Z,59.45
2019-05-17T14:17:33.247Z,59.69
2019-05-17T14:20:07.308Z,60.02
2019-05-17T14:22:40.190Z,59.91
2019-05-17T14:25:13.299Z,60.46
2019-05-17T14:27:46.115Z,60.07
2019-05-17T14:30:19.439Z,60.35
2019-05-17T14:32:52.261Z,60.17
2019-05-17T14:35:25.154Z,60.30
2019-05-17T14:37:57.931Z,60.79
2019-05-17T14:41:04.277Z,60.43
2019-05-17T14:43:05.334Z,60.37
2019-05-17T14:45:38.481Z,60.52
2019-05-17T14:48:11.505Z,60.83
2019-05-17T14:50:44.490Z,59.06
2019-05-17T14:53:17.502Z,58.86
2019-05-17T14:55:50.307Z,59.09
2019-05-17T14:58:23.139Z,59.42
2019-05-17T15:00:56.047Z,60.15
2019-05-17T15:03:28.904Z,60.02
2019-05-17T15:06:01.748Z,60.35
2019-05-17T15:08:34.582Z,60.30
2019-05-17T15:11:07.557Z,59.99
2019-05-17T15:13:40.397Z,59.91
2019-05-17T15:16:13.321Z,59.66
2019-05-17T15:18:46.247Z,60.10
2019-05-17T15:21:19.441Z,60.31
2019-05-17T15:23:52.380Z,60.01
2019-05-17T15:26:25.139Z,60.44
2019-05-17T15:28:58.019Z,60.62
2019-05-17T15:31:31.794Z,60.84
2019-05-17T15:34:04.596Z,60.98
2019-05-17T15:36:37.468Z,61.30
2019-05-17T15:39:10.355Z,60.25
2019-05-17T15:41:43.197Z,60.24
2019-05-17T15:44:16.096Z,60.52
2019-05-17T15:46:49.072Z,60.82
2019-05-17T15:49:21.900Z,60.45
2019-05-17T15:51:54.864Z,60.48
2019-05-17T15:54:27.763Z,59.13
2019-05-17T15:57:00.560Z,59.67
2019-05-17T15:59:33.432Z,59.40
2019-05-17T16:02:06.360Z,59.37
2019-05-17T16:04:39.243Z,59.98
2019-05-17T16:07:12.097Z,59.95
2019-05-17T16:09:46.028Z,60.26
2019-05-17T16:12:19.092Z,60.69
2019-05-17T16:14:52.005Z,61.23
2019-05-17T16:17:24.897Z,61.07
2019-05-17T16:19:57.826Z,60.81
2019-05-17T16:22:30.669Z,60.76
2019-05-17T16:25:03.514Z,60.90
2019-05-17T16:27:36.409Z,61.05
2019-05-17T16:30:09.530Z,60.95
2019-05-17T16:32:42.361Z,61.28
2019-05-17T16:35:15.495Z,61.10
2019-05-17T16:37:48.386Z,61.22
2019-05-17T16:40:21.518Z,60.83
2019-05-17T16:42:54.311Z,60.99
2019-05-17T16:45:27.115Z,60.47
2019-05-17T16:47:59.914Z,60.04
2019-05-17T16:50:32.785Z,60.11
2019-05-17T16:53:07.120Z,60.37
2019-05-17T16:55:39.944Z,60.67
2019-05-17T16:58:12.887Z,60.90
2019-05-17T17:00:46.426Z,61.32
2019-05-17T17:03:19.420Z,61.32
2019-05-17T17:05:52.261Z,61.54
2019-05-17T17:08:25.120Z,61.31
2019-05-17T17:10:58.045Z,61.45
2019-05-17T17:13:33.072Z,61.77
2019-05-17T17:16:05.433Z,62.01
2019-05-17T17:18:38.373Z,62.37
2019-05-17T17:21:11.605Z,62.24
2019-05-17T17:23:44.441Z,62.60
2019-05-17T17:26:17.343Z,59.31
2019-05-17T17:28:50.242Z,54.06
2019-05-17T17:31:23.308Z,54.69
2019-05-17T17:33:56.282Z,55.49
2019-05-17T17:36:29.154Z,56.56
2019-05-17T17:39:02.088Z,57.35
2019-05-17T17:41:36.551Z,57.97
2019-05-17T17:44:09.725Z,58.50
2019-05-17T17:46:42.750Z,59.06
2019-05-17T17:49:16.742Z,59.53
2019-05-17T17:51:49.705Z,59.88
2019-05-17T17:54:23.619Z,60.21
2019-05-17T17:56:56.707Z,60.37
2019-05-17T17:59:29.620Z,60.97
2019-05-17T18:02:02.636Z,61.23
2019-05-17T18:04:35.544Z,61.62
2019-05-17T18:07:08.438Z,61.93
2019-05-17T18:09:41.484Z,62.29
2019-05-17T18:12:14.420Z,62.33
2019-05-17T18:14:47.521Z,56.91
2019-05-17T18:17:20.516Z,51.97
2019-05-17T18:19:53.526Z,52.92
2019-05-17T18:22:26.549Z,54.72
2019-05-17T18:24:59.561Z,56.02
2019-05-17T18:27:32.539Z,56.92
2019-05-17T18:30:06.318Z,57.89
2019-05-17T18:32:39.203Z,58.76
2019-05-17T18:35:12.323Z,59.27
2019-05-17T18:37:45.588Z,60.20
2019-05-17T18:40:27.420Z,61.05
2019-05-17T18:43:04.481Z,61.64
2019-05-17T18:45:38.324Z,62.10
2019-05-17T18:48:23.393Z,62.49
2019-05-17T18:50:57.784Z,53.52
2019-05-17T18:53:38.005Z,53.41
2019-05-17T18:56:17.667Z,55.54
2019-05-17T18:58:56.940Z,56.96
2019-05-17T19:01:33.363Z,58.19
2019-05-17T19:04:12.809Z,60.03
2019-05-17T19:06:46.521Z,60.71
2019-05-17T19:09:19.617Z,61.75
2019-05-17T19:11:52.481Z,62.62
2019-05-17T19:14:25.454Z,61.19
2019-05-17T19:16:58.430Z,53.52
2019-05-17T19:19:32.468Z,51.80
2019-05-17T19:22:05.424Z,53.77
2019-05-17T19:24:38.902Z,55.75
2019-05-17T19:27:11.851Z,57.25
2019-05-17T19:29:44.715Z,58.70
2019-05-17T19:32:17.541Z,59.81
2019-05-17T19:34:50.432Z,61.05
2019-05-17T19:37:23.394Z,62.37
2019-05-17T19:39:56.384Z,63.12
2019-05-17T19:42:29.207Z,62.09
2019-05-17T19:45:02.172Z,53.45
2019-05-17T19:47:36.495Z,52.60
2019-05-17T19:50:09.943Z,54.64
2019-05-17T19:52:42.827Z,56.58
2019-05-17T19:55:16.194Z,58.48
2019-05-17T19:57:49.116Z,60.05
2019-05-17T20:00:22.406Z,60.86
2019-05-17T20:02:56.037Z,62.22
2019-05-17T20:05:29.247Z,62.92
2019-05-17T20:08:02.977Z,62.71
2019-05-17T20:10:39.363Z,54.84
2019-05-17T20:13:12.312Z,50.76
2019-05-17T20:15:46.352Z,53.18
2019-05-17T20:18:19.233Z,55.50
2019-05-17T20:20:52.220Z,57.60
2019-05-17T20:23:25.148Z,59.01
2019-05-17T20:25:58.053Z,60.91
2019-05-17T20:28:30.981Z,62.17
2019-05-17T20:31:03.929Z,64.05
2019-05-17T20:33:37.172Z,56.56
2019-05-17T20:36:10.174Z,52.27
2019-05-17T20:38:42.976Z,54.34
2019-05-17T20:41:16.047Z,56.51
2019-05-17T20:43:48.966Z,58.77
2019-05-17T20:46:21.926Z,60.86
2019-05-17T20:48:54.803Z,61.76
2019-05-17T20:51:27.889Z,64.47
2019-05-17T20:54:00.776Z,56.90
2019-05-17T20:56:33.788Z,53.09
2019-05-17T20:59:06.704Z,55.20
2019-05-17T21:01:39.711Z,57.69
2019-05-17T21:04:12.624Z,59.80
2019-05-17T21:06:46.012Z,61.01
2019-05-17T21:09:19.008Z,62.68
2019-05-17T21:11:51.936Z,61.98
2019-05-17T21:14:24.891Z,53.63
2019-05-17T21:16:57.901Z,52.26
2019-05-17T21:19:30.913Z,54.97
2019-05-17T21:22:03.723Z,57.35
2019-05-17T21:24:36.583Z,58.68
2019-05-17T21:27:09.679Z,61.00
2019-05-17T21:29:42.625Z,62.58
2019-05-17T21:32:15.517Z,62.13
2019-05-17T21:34:48.442Z,54.12
2019-05-17T21:37:21.318Z,54.28
2019-05-17T21:39:54.104Z,56.80
2019-05-17T21:42:27.104Z,59.74
2019-05-17T21:44:59.947Z,61.19
2019-05-17T21:47:32.788Z,62.64
2019-05-17T21:50:05.929Z,62.35
2019-05-17T21:52:38.863Z,53.72
2019-05-17T21:55:13.272Z,53.60
2019-05-17T21:57:46.100Z,56.42
2019-05-17T22:00:59.473Z,58.28
2019-05-17T22:03:32.632Z,60.56
2019-05-17T22:06:05.631Z,62.23
2019-05-17T22:08:38.792Z,63.62
2019-05-17T22:11:11.758Z,62.48
2019-05-17T22:13:44.626Z,53.48
2019-05-17T22:16:20.182Z,52.90
2019-05-17T22:18:53.353Z,55.53
2019-05-17T22:21:26.297Z,57.96
2019-05-17T22:23:59.067Z,59.78
2019-05-17T22:26:31.880Z,61.10
2019-05-17T22:29:04.944Z,62.29
2019-05-17T22:31:39.024Z,63.28
2019-05-17T22:34:12.064Z,55.10
2019-05-17T22:36:44.963Z,51.40
2019-05-17T22:39:17.827Z,54.16
2019-05-17T22:41:50.702Z,56.76
2019-05-17T22:44:23.678Z,58.76
2019-05-17T22:46:56.588Z,60.40
2019-05-17T22:49:29.525Z,61.90
2019-05-17T22:52:02.549Z,63.04
2019-05-17T22:54:35.534Z,62.83
2019-05-17T22:57:08.391Z,54.67
2019-05-17T22:59:41.254Z,52.86
2019-05-17T23:02:14.161Z,55.30
2019-05-17T23:04:47.135Z,57.60
2019-05-17T23:07:20.157Z,59.34
2019-05-17T23:09:53.098Z,61.57
2019-05-17T23:12:25.954Z,63.57
2019-05-17T23:14:58.943Z,62.15
2019-05-17T23:17:31.920Z,54.16
2019-05-17T23:20:04.971Z,53.43
2019-05-17T23:22:37.912Z,56.47
2019-05-17T23:25:11.510Z,58.77
2019-05-17T23:27:44.470Z,60.96
2019-05-17T23:30:18.094Z,63.03
2019-05-17T23:32:51.023Z,60.65
2019-05-17T23:35:23.802Z,53.40
2019-05-17T23:37:57.053Z,53.99
2019-05-17T23:40:30.082Z,56.62
2019-05-17T23:43:02.892Z,58.79
2019-05-17T23:45:35.759Z,61.61
2019-05-17T23:48:08.595Z,63.13
2019-05-17T23:50:41.420Z,63.02
2019-05-17T23:53:14.231Z,55.56
2019-05-17T23:55:47.217Z,51.84
2019-05-17T23:58:20.073Z,54.71
